Time;durP1;ratioP1;P1;durP2;ratioP2;P2;SDS_P1;SDS_P2;PMS_P1;PMS_P2;Temp;Humidity;BMP_temperature;BMP_pressure;BME280_temperature;BME280_humidity;BME280_pressure;Samples;Min_cycle;Max_cycle;Signal;HPM_P1;HPM_P2
2021/01/05 00:02:11;;;;;;;22.80;11.38;;;0.20;75.60;;;;;;4958280;28;20373;-77
2021/01/05 00:04:36;;;;;;;28.15;12.88;;;0.20;75.60;;;;;;4958236;28;20030;-77
2021/01/05 00:07:04;;;;;;;27.38;13.15;;;0.20;75.70;;;;;;4958197;28;20126;-77
2021/01/05 00:09:30;;;;;;;30.92;13.35;;;0.20;75.50;;;;;;4975599;28;20391;-78
2021/01/05 00:12:00;;;;;;;29.25;13.40;;;0.30;75.60;;;;;;4957989;28;20026;-78
2021/01/05 00:14:26;;;;;;;25.42;12.18;;;0.30;75.60;;;;;;4958351;28;20033;-76
2021/01/05 00:16:52;;;;;;;28.30;13.25;;;0.30;75.30;;;;;;4958123;28;20038;-78
2021/01/05 00:19:19;;;;;;;26.40;12.43;;;0.30;75.10;;;;;;4958118;28;20022;-77
2021/01/05 00:21:45;;;;;;;24.95;12.80;;;0.30;75.00;;;;;;4958282;28;20038;-78
2021/01/05 00:24:11;;;;;;;25.98;12.77;;;0.30;74.90;;;;;;4974996;28;20027;-78
2021/01/05 00:26:37;;;;;;;26.15;12.43;;;0.30;74.90;;;;;;4975420;28;20487;-78
2021/01/05 00:29:04;;;;;;;25.55;10.80;;;0.40;74.90;;;;;;4958166;28;20057;-77
2021/01/05 00:31:30;;;;;;;23.77;11.77;;;0.40;74.70;;;;;;4957881;28;20019;-77
2021/01/05 00:33:56;;;;;;;23.92;11.07;;;0.40;74.50;;;;;;4957673;28;20484;-78
2021/01/05 00:36:23;;;;;;;21.33;10.70;;;0.40;74.40;;;;;;4957528;28;20118;-78
2021/01/05 00:38:48;;;;;;;22.50;10.73;;;0.40;74.30;;;;;;4975010;28;20387;-78
2021/01/05 00:41:14;;;;;;;21.92;10.70;;;0.40;74.30;;;;;;4957581;28;20035;-78
2021/01/05 00:43:40;;;;;;;20.90;11.18;;;0.40;75.20;;;;;;4957294;28;20023;-79
2021/01/05 00:46:09;;;;;;;21.33;10.73;;;0.40;74.30;;;;;;4974745;28;20019;-78
2021/01/05 00:48:35;;;;;;;23.55;11.57;;;0.40;74.30;;;;;;4975018;28;20360;-77
2021/01/05 00:51:00;;;;;;;21.42;10.07;;;0.50;74.40;;;;;;4957387;28;20078;-78
2021/01/05 00:53:26;;;;;;;18.95;9.82;;;0.50;74.40;;;;;;4957505;28;20023;-77
2021/01/05 00:55:52;;;;;;;18.15;10.00;;;0.50;74.30;;;;;;4957478;28;20033;-77
2021/01/05 00:58:17;;;;;;;19.42;10.07;;;0.50;74.30;;;;;;4974618;28;20027;-78
2021/01/05 01:00:43;;;;;;;18.85;10.02;;;0.50;74.30;;;;;;4974784;28;20081;-77
2021/01/05 01:03:09;;;;;;;23.08;11.60;;;0.50;74.20;;;;;;4974678;28;20471;-77
2021/01/05 01:05:34;;;;;;;17.95;9.98;;;0.60;74.00;;;;;;4974483;28;20038;-78
2021/01/05 01:08:00;;;;;;;24.52;11.27;;;0.50;73.80;;;;;;4956890;28;20054;-78
2021/01/05 01:10:26;;;;;;;21.65;10.73;;;0.50;73.80;;;;;;4974537;28;20073;-78
2021/01/05 01:12:52;;;;;;;19.60;10.07;;;0.50;73.90;;;;;;4974333;28;20025;-77
2021/01/05 01:15:18;;;;;;;21.42;10.32;;;0.50;74.10;;;;;;4941020;28;20038;-76
2021/01/05 01:17:43;;;;;;;21.55;9.73;;;0.60;74.20;;;;;;4956962;28;20030;-78
2021/01/05 01:20:10;;;;;;;20.60;10.82;;;0.60;74.10;;;;;;4956955;28;20451;-77
2021/01/05 01:22:36;;;;;;;22.55;11.30;;;0.60;74.00;;;;;;4973879;28;20031;-78
2021/01/05 01:25:02;;;;;;;23.38;11.50;;;0.50;73.80;;;;;;4960059;28;20125;-78
2021/01/05 01:27:28;;;;;;;20.98;10.18;;;0.50;73.80;;;;;;4947152;28;20107;-79
2021/01/05 01:29:54;;;;;;;21.75;10.75;;;0.50;74.00;;;;;;4946342;28;20062;-79
2021/01/05 01:32:19;;;;;;;22.65;11.00;;;0.40;74.00;;;;;;4960832;28;20050;-79
2021/01/05 01:34:45;;;;;;;21.58;10.95;;;0.40;74.20;;;;;;4974279;28;20093;-79
2021/01/05 01:37:14;;;;;;;22.05;11.73;;;0.40;74.30;;;;;;4957066;28;20073;-78
2021/01/05 01:39:42;;;;;;;18.77;10.02;;;0.40;74.40;;;;;;4957123;28;20069;-79
2021/01/05 01:42:09;;;;;;;21.02;10.30;;;0.40;74.70;;;;;;4957059;28;20129;-80
2021/01/05 01:44:37;;;;;;;28.73;11.27;;;0.40;74.90;;;;;;4957137;28;20026;-79
2021/01/05 01:47:31;;;;;;;23.17;11.85;;;0.40;74.90;;;;;;4956786;28;20042;-79
2021/01/05 01:50:00;;;;;;;24.63;11.10;;;0.40;75.10;;;;;;4974301;28;20030;-79
2021/01/05 01:52:50;;;;;;;24.83;12.75;;;0.40;75.00;;;;;;4974140;28;20034;-77
2021/01/05 01:55:24;;;;;;;23.63;11.30;;;0.40;74.90;;;;;;4956872;28;20093;-79
2021/01/05 01:58:05;;;;;;;22.15;10.75;;;0.40;74.90;;;;;;4956642;28;20487;-76
2021/01/05 02:00:45;;;;;;;23.90;11.77;;;0.40;74.80;;;;;;4956636;28;20546;-76
2021/01/05 02:03:23;;;;;;;22.75;12.07;;;0.40;74.80;;;;;;4956619;28;20488;-77
2021/01/05 02:05:54;;;;;;;23.05;11.40;;;0.40;74.80;;;;;;4956744;28;20027;-77
2021/01/05 02:08:54;;;;;;;24.70;11.63;;;0.40;74.90;;;;;;4956496;28;20079;-77
2021/01/05 02:11:52;;;;;;;21.63;10.80;;;0.50;75.00;;;;;;4956720;28;20033;-78
2021/01/05 02:14:44;;;;;;;23.80;11.75;;;0.40;74.90;;;;;;4956664;28;20058;-78
2021/01/05 02:17:18;;;;;;;25.70;12.52;;;0.50;74.90;;;;;;4973943;28;20093;-79
2021/01/05 02:19:53;;;;;;;23.70;11.45;;;0.50;75.00;;;;;;4956745;28;20058;-78
2021/01/05 02:22:32;;;;;;;22.05;10.57;;;0.60;74.90;;;;;;4956306;28;20039;-78
2021/01/05 02:25:19;;;;;;;20.20;10.50;;;0.60;74.80;;;;;;4956539;28;20444;-78
2021/01/05 02:27:53;;;;;;;22.98;11.20;;;0.60;74.80;;;;;;4956645;28;20031;-78
2021/01/05 02:30:23;;;;;;;23.23;11.40;;;0.60;74.60;;;;;;4956405;28;20029;-79
2021/01/05 02:33:02;;;;;;;23.73;11.82;;;0.60;74.60;;;;;;4956546;28;20078;-79
2021/01/05 02:36:10;;;;;;;23.05;11.65;;;0.60;74.50;;;;;;4973968;28;20383;-78
2021/01/05 02:39:10;;;;;;;22.52;11.27;;;0.60;74.50;;;;;;4956517;28;20030;-78
2021/01/05 02:42:04;;;;;;;23.30;10.93;;;0.60;74.50;;;;;;4973491;28;20027;-78
2021/01/05 02:44:39;;;;;;;22.30;10.98;;;0.60;74.40;;;;;;4973766;28;20073;-79
2021/01/05 02:47:14;;;;;;;21.27;11.50;;;0.70;74.30;;;;;;4957640;28;20066;-78
2021/01/05 02:49:47;;;;;;;20.27;10.40;;;0.60;74.20;;;;;;4977337;28;20027;-78
2021/01/05 02:53:02;;;;;;;22.92;12.23;;;0.70;74.30;;;;;;4960018;28;20114;-79
2021/01/05 02:55:49;;;;;;;19.48;10.38;;;0.70;74.30;;;;;;4960306;28;20027;-78
2021/01/05 02:58:32;;;;;;;17.88;10.10;;;0.70;74.40;;;;;;4963029;28;20030;-79
2021/01/05 03:01:21;;;;;;;23.17;11.52;;;0.70;74.30;;;;;;4977005;28;20137;-78
2021/01/05 03:03:48;;;;;;;20.08;10.30;;;0.70;74.20;;;;;;4973903;28;20023;-77
2021/01/05 03:06:22;;;;;;;18.85;9.90;;;0.70;74.30;;;;;;4973281;28;20031;-79
2021/01/05 03:09:23;;;;;;;16.17;9.18;;;0.70;74.20;;;;;;4974658;28;20050;-79
2021/01/05 03:12:07;;;;;;;16.67;9.10;;;0.70;74.20;;;;;;4959586;28;20031;-77
2021/01/05 03:14:56;;;;;;;17.67;10.00;;;0.70;74.20;;;;;;4959312;28;20026;-78
2021/01/05 03:17:35;;;;;;;17.48;9.32;;;0.80;74.30;;;;;;4975376;28;20563;-78
2021/01/05 03:20:29;;;;;;;16.10;8.48;;;0.80;74.20;;;;;;4959016;28;20029;-78
2021/01/05 03:22:58;;;;;;;16.77;8.73;;;0.90;74.20;;;;;;4976396;28;20062;-78
2021/01/05 03:25:26;;;;;;;16.98;10.15;;;0.80;74.00;;;;;;4959174;28;20087;-78
2021/01/05 03:27:55;;;;;;;22.45;12.10;;;0.80;73.90;;;;;;4959080;28;20062;-78
2021/01/05 03:30:34;;;;;;;17.65;10.02;;;0.90;74.00;;;;;;4976309;28;20022;-78
2021/01/05 03:33:00;;;;;;;20.35;10.75;;;0.90;74.00;;;;;;4958888;28;20125;-78
2021/01/05 03:35:27;;;;;;;21.50;11.10;;;0.80;73.80;;;;;;4958977;28;20083;-78
2021/01/05 03:37:54;;;;;;;18.33;10.15;;;0.80;73.90;;;;;;4943043;28;20035;-79
2021/01/05 03:40:20;;;;;;;19.42;11.02;;;0.80;74.10;;;;;;4976084;28;20023;-78
2021/01/05 03:42:46;;;;;;;20.30;11.15;;;0.80;74.10;;;;;;4958707;28;20113;-78
2021/01/05 03:45:18;;;;;;;18.35;10.10;;;0.80;74.10;;;;;;4975705;28;20042;-78
2021/01/05 03:47:44;;;;;;;21.55;10.55;;;0.80;74.20;;;;;;4958750;28;20386;-79
2021/01/05 03:50:10;;;;;;;19.88;10.77;;;0.80;74.10;;;;;;4958193;28;20027;-79
2021/01/05 03:52:35;;;;;;;20.75;11.23;;;0.90;74.20;;;;;;4958174;28;20019;-80
2021/01/05 03:55:01;;;;;;;21.48;11.40;;;0.80;74.10;;;;;;4958335;28;20026;-79
2021/01/05 03:57:26;;;;;;;21.20;12.30;;;0.90;74.20;;;;;;4957916;28;20026;-78
2021/01/05 03:59:52;;;;;;;20.95;11.07;;;1.00;74.00;;;;;;4958326;28;20023;-78
2021/01/05 04:02:18;;;;;;;21.05;12.50;;;0.90;73.80;;;;;;4958043;28;20480;-78
2021/01/05 04:04:44;;;;;;;21.73;11.23;;;1.00;74.70;;;;;;4975556;28;20031;-78
2021/01/05 04:07:09;;;;;;;17.90;10.50;;;1.00;74.00;;;;;;4958108;28;20041;-77
2021/01/05 04:09:35;;;;;;;19.88;10.82;;;1.00;74.00;;;;;;4958338;28;20046;-78
2021/01/05 04:12:00;;;;;;;18.35;10.10;;;1.00;73.90;;;;;;4957912;28;20103;-77
2021/01/05 04:14:26;;;;;;;17.63;9.63;;;1.00;73.90;;;;;;4958216;28;20065;-77
2021/01/05 04:16:52;;;;;;;15.23;8.45;;;1.00;73.80;;;;;;4958061;28;20022;-77
2021/01/05 04:19:17;;;;;;;16.45;8.65;;;1.00;73.60;;;;;;4957808;28;20029;-77
2021/01/05 04:21:43;;;;;;;15.13;8.48;;;1.00;73.40;;;;;;4958068;28;20035;-77
2021/01/05 04:24:08;;;;;;;11.65;7.32;;;1.00;73.20;;;;;;4957849;28;20109;-77
2021/01/05 04:26:34;;;;;;;14.90;8.30;;;1.00;73.20;;;;;;4958125;28;20077;-77
2021/01/05 04:29:00;;;;;;;11.10;7.10;;;1.00;73.20;;;;;;4957853;28;20031;-77
2021/01/05 04:31:26;;;;;;;14.75;7.75;;;1.00;73.20;;;;;;4957649;28;20030;-77
2021/01/05 04:33:51;;;;;;;15.32;8.27;;;1.00;73.20;;;;;;4957391;28;20026;-77
2021/01/05 04:36:17;;;;;;;15.10;8.35;;;1.00;73.10;;;;;;4957447;28;20031;-76
2021/01/05 04:38:42;;;;;;;14.63;9.10;;;1.00;73.10;;;;;;4957768;28;20522;-76
2021/01/05 04:41:16;;;;;;;15.65;8.25;;;1.00;73.10;;;;;;4957356;28;20098;-76
2021/01/05 04:43:56;;;;;;;16.10;8.43;;;1.00;72.90;;;;;;4957607;28;20026;-76
2021/01/05 04:46:33;;;;;;;16.70;9.23;;;1.00;72.90;;;;;;4957511;28;20019;-77
2021/01/05 04:49:46;;;;;;;18.00;9.80;;;1.00;73.10;;;;;;4974842;28;20169;-77
2021/01/05 04:52:16;;;;;;;15.55;8.27;;;1.00;73.20;;;;;;4957556;28;20027;-77
2021/01/05 04:54:51;;;;;;;16.15;9.18;;;1.00;73.30;;;;;;4957491;28;20546;-77
2021/01/05 04:57:16;;;;;;;;;;;1.00;73.20;;;;;;4957852;28;20027;-77
2021/01/05 04:59:44;;;;;;;;;;;1.00;73.30;;;;;;4973768;28;20255;-76
2021/01/05 05:02:44;;;;;;;15.43;8.55;;;1.00;73.30;;;;;;4957375;28;19922;-76
2021/01/05 05:05:09;;;;;;;16.85;9.60;;;1.00;73.30;;;;;;4957243;28;20023;-76
2021/01/05 05:07:48;;;;;;;18.95;10.43;;;1.00;73.40;;;;;;4957216;28;20097;-76
2021/01/05 05:10:25;;;;;;;19.90;11.02;;;1.10;73.80;;;;;;4956641;28;20030;-76
2021/01/05 05:13:15;;;;;;;21.30;12.43;;;1.10;74.10;;;;;;4973274;28;20479;-76
2021/01/05 05:15:41;;;;;;;24.10;13.45;;;1.00;74.50;;;;;;4957263;28;20023;-76
2021/01/05 05:18:30;;;;;;;21.35;12.20;;;0.90;74.90;;;;;;4957104;28;20074;-76
2021/01/05 05:21:11;;;;;;;20.98;11.63;;;0.90;75.40;;;;;;4974382;28;20475;-77
2021/01/05 05:23:49;;;;;;;20.48;11.63;;;0.90;75.70;;;;;;4957101;28;20037;-76
2021/01/05 05:26:17;;;;;;;25.73;12.88;;;0.80;76.10;;;;;;4957948;28;20038;-76
2021/01/05 05:28:58;;;;;;;23.38;12.88;;;0.80;76.30;;;;;;4958852;28;20027;-76
2021/01/05 05:31:27;;;;;;;20.50;11.73;;;0.80;76.40;;;;;;4957547;28;20023;-77
2021/01/05 05:33:59;;;;;;;25.05;13.38;;;0.90;76.40;;;;;;4974243;28;20030;-76
2021/01/05 05:36:54;;;;;;;24.35;13.00;;;0.80;76.30;;;;;;4957049;28;20031;-76
2021/01/05 05:39:28;;;;;;;20.47;10.93;;;0.70;76.60;;;;;;4957148;28;20499;-76
2021/01/05 05:42:21;;;;;;;23.67;13.05;;;0.70;76.50;;;;;;4956592;28;20487;-76
2021/01/05 05:44:57;;;;;;;21.85;12.07;;;0.70;76.50;;;;;;4974305;28;20023;-76
2021/01/05 05:47:27;;;;;;;25.25;13.25;;;0.70;76.40;;;;;;4956907;28;20118;-76
2021/01/05 05:50:00;;;;;;;24.95;13.85;;;0.80;76.40;;;;;;4956570;28;20031;-76
2021/01/05 05:52:35;;;;;;;21.58;12.40;;;0.80;76.30;;;;;;4957030;28;20027;-76
2021/01/05 05:55:03;;;;;;;18.05;10.00;;;0.80;76.50;;;;;;4956762;28;20050;-76
2021/01/05 05:57:41;;;;;;;26.13;14.35;;;0.80;76.80;;;;;;4941116;28;20054;-76
2021/01/05 06:00:16;;;;;;;24.05;14.45;;;0.80;76.80;;;;;;4973904;28;20027;-76
2021/01/05 06:02:41;;;;;;;25.63;13.65;;;0.80;76.90;;;;;;4956751;28;20483;-76
2021/01/05 06:05:31;;;;;;;25.90;15.45;;;0.80;76.90;;;;;;4956254;28;20038;-77
2021/01/05 06:07:57;;;;;;;26.00;14.00;;;0.70;77.20;;;;;;4956276;28;20051;-77
2021/01/05 06:10:23;;;;;;;27.02;14.50;;;0.80;77.30;;;;;;4956376;28;20018;-77
2021/01/05 06:12:49;;;;;;;27.77;14.68;;;0.80;77.30;;;;;;4956556;28;20023;-76
2021/01/05 06:15:15;;;;;;;23.92;14.50;;;0.80;77.30;;;;;;4956582;28;20046;-76
2021/01/05 06:17:41;;;;;;;25.23;14.65;;;0.80;77.40;;;;;;4956191;28;20027;-76
2021/01/05 06:20:07;;;;;;;27.05;14.13;;;0.80;77.30;;;;;;4956561;28;20111;-76
2021/01/05 06:22:33;;;;;;;28.33;15.07;;;0.80;77.20;;;;;;4959576;28;20548;-75
2021/01/05 06:24:59;;;;;;;25.65;13.73;;;0.90;77.40;;;;;;4959933;28;20105;-77
2021/01/05 06:27:25;;;;;;;21.63;12.93;;;0.90;77.30;;;;;;4959916;28;20027;-79
2021/01/05 06:29:50;;;;;;;24.75;13.75;;;0.90;77.20;;;;;;4959806;28;20506;-77
2021/01/05 06:32:16;;;;;;;24.33;13.82;;;1.00;77.20;;;;;;4959961;28;20458;-76
2021/01/05 06:34:42;;;;;;;23.92;13.75;;;0.90;77.10;;;;;;4960012;28;20114;-76
2021/01/05 06:37:07;;;;;;;25.20;13.35;;;0.90;77.30;;;;;;4959675;28;20488;-76
2021/01/05 06:39:33;;;;;;;26.17;15.10;;;0.90;77.80;;;;;;4959456;28;20034;-76
2021/01/05 06:41:59;;;;;;;24.17;14.32;;;0.80;78.30;;;;;;4959868;28;20370;-77
2021/01/05 06:44:24;;;;;;;29.75;16.20;;;0.70;78.80;;;;;;4959683;28;20031;-76
2021/01/05 06:46:51;;;;;;;30.83;16.35;;;0.70;79.40;;;;;;4977240;28;20023;-76
2021/01/05 06:49:17;;;;;;;26.75;14.68;;;0.60;80.20;;;;;;4976846;28;20038;-76
2021/01/05 06:51:42;;;;;;;28.95;15.80;;;0.50;80.70;;;;;;4977187;28;20034;-76
2021/01/05 06:54:08;;;;;;;28.27;15.90;;;0.40;81.20;;;;;;4976857;28;20023;-77
2021/01/05 06:56:47;;;;;;;27.30;15.32;;;0.40;81.50;;;;;;4976681;28;20034;-76
2021/01/05 06:59:13;;;;;;;33.00;16.98;;;0.40;81.70;;;;;;4959461;28;20023;-76
2021/01/05 07:01:38;;;;;;;29.05;16.23;;;0.40;81.60;;;;;;4959571;28;20391;-76
2021/01/05 07:04:04;;;;;;;33.08;16.52;;;0.40;81.70;;;;;;4959210;28;20027;-76
2021/01/05 07:06:30;;;;;;;29.33;16.08;;;0.40;81.60;;;;;;4959121;28;20104;-76
2021/01/05 07:08:55;;;;;;;33.22;16.52;;;0.50;81.60;;;;;;4958945;28;20066;-78
2021/01/05 07:11:21;;;;;;;31.90;16.75;;;0.60;81.50;;;;;;4976343;28;20033;-76
2021/01/05 07:13:46;;;;;;;30.33;16.65;;;0.60;81.00;;;;;;4958861;28;20468;-76
2021/01/05 07:16:12;;;;;;;27.85;15.85;;;0.50;81.20;;;;;;4959962;28;20543;-77
2021/01/05 07:18:37;;;;;;;33.95;17.38;;;0.50;81.40;;;;;;4959182;28;20023;-78
2021/01/05 07:21:04;;;;;;;30.80;15.25;;;0.50;81.50;;;;;;4958715;28;20030;-78
2021/01/05 07:23:30;;;;;;;27.95;15.77;;;0.60;81.90;;;;;;4959210;28;20117;-77
2021/01/05 07:25:55;;;;;;;28.55;15.80;;;0.60;81.80;;;;;;4942887;28;20111;-78
2021/01/05 07:28:21;;;;;;;29.52;16.27;;;0.60;81.50;;;;;;4958423;28;20118;-77
2021/01/05 07:30:46;;;;;;;26.77;14.63;;;0.70;81.40;;;;;;4976157;28;20073;-77
2021/01/05 07:33:12;;;;;;;30.40;15.55;;;0.80;81.20;;;;;;4942020;28;20062;-76
2021/01/05 07:35:38;;;;;;;31.38;15.93;;;0.80;80.90;;;;;;4958422;28;20061;-77
2021/01/05 07:38:04;;;;;;;33.55;17.55;;;0.90;80.70;;;;;;4942706;28;20507;-77
2021/01/05 07:40:29;;;;;;;29.52;16.98;;;0.80;80.20;;;;;;4958812;28;20038;-76
2021/01/05 07:42:55;;;;;;;28.48;16.13;;;0.80;80.10;;;;;;4958641;28;20030;-78
2021/01/05 07:45:22;;;;;;;28.67;16.23;;;0.80;80.20;;;;;;4958912;28;20027;-75
2021/01/05 07:47:48;;;;;;;28.33;15.77;;;0.90;80.40;;;;;;4958496;28;20471;-77
2021/01/05 07:50:23;;;;;;;32.22;17.13;;;0.90;80.20;;;;;;4958633;28;20033;-76
2021/01/05 07:52:48;;;;;;;25.02;13.57;;;1.00;79.90;;;;;;4960305;28;20117;-75
2021/01/05 07:55:15;;;;;;;51.47;16.60;;;0.90;80.10;;;;;;4958428;28;20055;-75
2021/01/05 07:57:41;;;;;;;44.00;20.88;;;1.10;83.00;;;;;;4960885;28;20029;-73
2021/01/05 08:00:09;;;;;;;37.42;18.38;;;2.10;92.90;;;;;;4958297;28;20022;-74
2021/01/05 08:02:36;;;;;;;26.55;15.43;;;2.80;89.60;;;;;;4958012;28;20042;-73
2021/01/05 08:05:02;;;;;;;26.23;14.85;;;3.50;82.80;;;;;;4957791;28;20027;-74
2021/01/05 08:07:28;;;;;;;23.20;13.95;;;3.70;77.20;;;;;;4968544;28;20061;-75
2021/01/05 08:10:31;;;;;;;26.20;14.75;;;4.20;75.40;;;;;;4938579;29;20118;-79
2021/01/05 08:12:57;;;;;;;26.58;15.65;;;4.10;71.40;;;;;;4887285;29;20035;-78
2021/01/05 08:15:25;;;;;;;23.60;14.38;;;3.60;68.50;;;;;;4955934;28;20123;-79
2021/01/05 08:17:52;;;;;;;25.90;16.48;;;3.10;68.60;;;;;;4955990;29;20097;-79
2021/01/05 08:20:21;;;;;;;25.83;14.80;;;2.70;69.80;;;;;;4938228;29;20035;-78
2021/01/05 08:22:47;;;;;;;24.58;13.60;;;2.30;71.20;;;;;;4937791;29;20027;-79
2021/01/05 08:25:17;;;;;;;33.20;18.23;;;2.20;72.50;;;;;;4955421;29;20024;-78
2021/01/05 08:27:50;;;;;;;31.42;17.33;;;1.90;73.80;;;;;;4937883;29;20456;-80
2021/01/05 08:30:18;;;;;;;28.13;16.42;;;1.70;74.80;;;;;;4938224;29;20078;-78
2021/01/05 08:32:45;;;;;;;29.92;17.50;;;1.60;75.80;;;;;;4955237;29;20043;-78
2021/01/05 08:35:11;;;;;;;31.58;17.45;;;1.40;76.60;;;;;;4937949;29;20027;-78
2021/01/05 08:37:38;;;;;;;27.10;16.95;;;1.30;77.10;;;;;;4937880;29;20027;-79
2021/01/05 08:40:10;;;;;;;27.75;16.25;;;1.20;77.80;;;;;;4955354;28;20070;-78
2021/01/05 08:42:39;;;;;;;32.20;17.15;;;1.20;78.40;;;;;;4953769;29;20097;-80
2021/01/05 08:45:07;;;;;;;30.50;16.80;;;1.20;79.00;;;;;;4954508;28;20050;-78
2021/01/05 08:47:33;;;;;;;32.28;16.95;;;1.20;79.10;;;;;;4937828;29;20024;-79
2021/01/05 08:50:01;;;;;;;27.92;16.52;;;1.30;79.20;;;;;;4921883;29;20110;-79
2021/01/05 08:52:26;;;;;;;32.10;18.20;;;1.40;79.20;;;;;;4937641;29;20027;-78
2021/01/05 08:54:52;;;;;;;31.45;16.27;;;1.30;79.10;;;;;;4937751;29;20090;-80
2021/01/05 08:57:19;;;;;;;29.75;16.30;;;1.30;79.00;;;;;;4937725;29;20027;-80
2021/01/05 08:59:57;;;;;;;29.48;17.52;;;1.40;78.80;;;;;;4922288;29;20507;-80
2021/01/05 09:02:23;;;;;;;31.63;18.02;;;1.30;78.80;;;;;;4937568;29;20206;-78
2021/01/05 09:04:48;;;;;;;28.23;16.27;;;1.30;79.00;;;;;;4937848;29;20023;-78
2021/01/05 09:07:19;;;;;;;32.75;19.27;;;1.30;79.30;;;;;;4940940;28;20105;-79
2021/01/05 09:09:45;;;;;;;35.10;19.80;;;1.30;79.50;;;;;;4940501;28;20225;-79
2021/01/05 09:12:10;;;;;;;30.42;18.05;;;1.10;80.00;;;;;;4956398;28;20110;-77
2021/01/05 09:14:36;;;;;;;33.92;19.50;;;1.10;80.30;;;;;;4956968;28;20048;-78
2021/01/05 09:17:01;;;;;;;32.03;18.30;;;1.20;80.20;;;;;;4956522;28;20015;-78
2021/01/05 09:19:28;;;;;;;28.23;16.77;;;1.30;80.30;;;;;;4956628;28;20035;-78
2021/01/05 09:21:54;;;;;;;35.78;18.75;;;1.30;80.10;;;;;;4956510;28;20046;-78
2021/01/05 09:24:21;;;;;;;34.30;18.83;;;1.30;80.00;;;;;;4974213;28;20019;-78
2021/01/05 09:26:54;;;;;;;35.30;19.05;;;1.30;79.90;;;;;;4956795;28;20033;-80
2021/01/05 09:29:22;;;;;;;36.08;19.25;;;1.40;79.80;;;;;;4973954;28;20471;-78
2021/01/05 09:31:50;;;;;;;36.85;19.52;;;1.40;79.80;;;;;;4956585;28;20061;-78
2021/01/05 09:34:17;;;;;;;36.00;18.90;;;1.30;80.00;;;;;;4956748;28;20030;-78
2021/01/05 09:36:43;;;;;;;32.35;18.50;;;1.30;80.10;;;;;;4957853;28;20034;-78
2021/01/05 09:39:13;;;;;;;32.72;18.20;;;1.40;80.10;;;;;;4943323;28;20122;-79
2021/01/05 09:41:50;;;;;;;35.05;19.08;;;1.40;80.00;;;;;;4957975;28;20073;-79
2021/01/05 09:44:17;;;;;;;37.88;20.58;;;1.40;79.90;;;;;;4926175;28;20035;-78
2021/01/05 09:46:48;;;;;;;35.83;20.33;;;1.50;80.00;;;;;;4955952;28;20027;-79
2021/01/05 09:49:16;;;;;;;44.55;23.35;;;1.50;80.00;;;;;;4956280;28;20118;-78
2021/01/05 09:51:56;;;;;;;42.85;23.92;;;1.30;80.10;;;;;;4924761;28;20054;-78
2021/01/05 09:54:21;;;;;;;40.83;23.90;;;1.30;80.30;;;;;;4956224;28;20027;-75
2021/01/05 09:56:56;;;;;;;47.00;24.95;;;1.30;80.60;;;;;;4959385;28;20368;-78
2021/01/05 09:59:23;;;;;;;36.28;20.88;;;1.30;80.60;;;;;;4944367;28;20480;-79
2021/01/05 10:01:49;;;;;;;36.90;20.98;;;1.30;80.40;;;;;;4960220;28;20130;-78
2021/01/05 10:04:16;;;;;;;35.88;19.95;;;1.40;80.30;;;;;;4959988;28;20121;-78
2021/01/05 10:06:43;;;;;;;38.80;20.17;;;1.40;80.10;;;;;;4959919;28;20031;-79
2021/01/05 10:09:12;;;;;;;40.42;20.98;;;1.40;80.00;;;;;;4977301;28;20179;-79
2021/01/05 10:11:45;;;;;;;35.42;18.65;;;1.50;80.10;;;;;;4959569;28;20038;-78
2021/01/05 10:14:14;;;;;;;41.00;21.85;;;1.50;79.90;;;;;;4959922;28;20027;-77
2021/01/05 10:16:45;;;;;;;41.92;22.10;;;1.40;80.00;;;;;;4959778;28;20432;-79
2021/01/05 10:19:17;;;;;;;37.05;19.83;;;1.20;80.00;;;;;;4958936;28;20081;-79
2021/01/05 10:21:50;;;;;;;38.35;20.98;;;1.30;80.50;;;;;;4975908;28;20045;-78
2021/01/05 10:24:16;;;;;;;36.38;18.98;;;1.30;80.60;;;;;;4976657;28;20105;-79
2021/01/05 10:26:55;;;;;;;36.83;21.27;;;1.40;80.50;;;;;;4959354;28;20066;-78
2021/01/05 10:29:22;;;;;;;37.15;20.73;;;1.40;80.30;;;;;;4959753;28;20030;-78
2021/01/05 10:31:48;;;;;;;44.90;22.90;;;1.50;80.30;;;;;;4959466;28;20546;-79
2021/01/05 10:34:19;;;;;;;38.30;21.10;;;1.50;80.20;;;;;;4959175;28;20151;-79
2021/01/05 10:36:57;;;;;;;34.72;19.05;;;1.60;80.00;;;;;;4943898;28;20031;-78
2021/01/05 10:39:26;;;;;;;37.53;20.13;;;1.60;79.60;;;;;;4944107;28;20032;-79
2021/01/05 10:41:53;;;;;;;34.65;19.17;;;1.60;79.70;;;;;;4943682;28;20499;-79
2021/01/05 10:44:20;;;;;;;36.33;19.02;;;1.60;79.70;;;;;;4976743;28;20061;-79
2021/01/05 10:46:46;;;;;;;35.70;19.70;;;1.60;79.60;;;;;;4958839;28;20065;-79
2021/01/05 10:49:15;;;;;;;39.67;21.45;;;1.60;79.50;;;;;;4959098;28;20035;-79
2021/01/05 10:51:48;;;;;;;40.95;22.38;;;1.40;79.90;;;;;;4959124;28;20030;-79
2021/01/05 10:54:17;;;;;;;40.70;21.70;;;1.40;80.70;;;;;;4976507;28;20027;-79
2021/01/05 10:56:47;;;;;;;42.17;22.35;;;1.30;80.80;;;;;;4976374;28;20102;-79
2021/01/05 10:59:16;;;;;;;43.67;23.27;;;1.20;81.00;;;;;;4959947;28;20471;-79
2021/01/05 11:01:42;;;;;;;40.17;22.25;;;1.30;81.30;;;;;;4959060;28;20050;-79
2021/01/05 11:04:08;;;;;;;40.33;21.67;;;1.20;81.40;;;;;;4958376;28;20026;-81
2021/01/05 11:07:02;;;;;;;37.80;20.80;;;1.30;81.70;;;;;;4958692;28;20045;-80
2021/01/05 11:09:30;;;;;;;43.60;22.33;;;1.20;81.80;;;;;;4958960;28;20471;-80
2021/01/05 11:12:00;;;;;;;40.55;21.00;;;1.30;81.50;;;;;;4958416;28;20033;-80
2021/01/05 11:14:26;;;;;;;42.70;22.27;;;1.20;81.80;;;;;;4959449;28;20431;-80
2021/01/05 11:16:53;;;;;;;41.22;21.95;;;1.30;81.70;;;;;;4958651;28;20058;-80
2021/01/05 11:19:27;;;;;;;43.05;22.40;;;1.40;81.50;;;;;;4942624;28;20054;-80
2021/01/05 11:21:57;;;;;;;44.53;24.42;;;1.50;81.30;;;;;;4943257;28;20082;-80
2021/01/05 11:24:25;;;;;;;47.35;24.40;;;1.40;80.90;;;;;;4957949;28;20480;-79
2021/01/05 11:26:56;;;;;;;43.65;23.20;;;1.40;80.90;;;;;;4975651;28;20034;-79
2021/01/05 11:29:25;;;;;;;55.17;27.10;;;1.30;81.60;;;;;;4942534;28;20033;-80
2021/01/05 11:32:08;;;;;;;52.80;25.50;;;1.20;81.80;;;;;;4958505;28;20034;-80
2021/01/05 11:34:37;;;;;;;49.28;25.38;;;1.20;82.10;;;;;;4958420;28;20015;-80
2021/01/05 11:37:08;;;;;;;49.67;25.92;;;1.20;82.30;;;;;;4957825;28;20058;-80
2021/01/05 11:39:36;;;;;;;45.67;25.38;;;1.30;82.50;;;;;;4958814;28;20531;-80
2021/01/05 11:42:04;;;;;;;42.42;23.50;;;1.30;82.50;;;;;;4957975;28;20125;-80
2021/01/05 11:44:30;;;;;;;50.88;27.52;;;1.40;82.30;;;;;;4958253;28;20113;-80
2021/01/05 11:46:57;;;;;;;45.85;23.73;;;1.50;82.10;;;;;;4975565;28;20031;-80
2021/01/05 11:49:24;;;;;;;47.65;24.83;;;1.50;81.90;;;;;;4958274;28;20495;-80
2021/01/05 11:51:53;;;;;;;40.05;21.38;;;1.50;81.80;;;;;;4957932;28;20042;-79
2021/01/05 11:54:20;;;;;;;50.08;24.88;;;1.60;81.60;;;;;;4942019;28;20031;-79
2021/01/05 11:56:47;;;;;;;48.75;24.45;;;1.60;81.30;;;;;;4942022;28;20034;-79
2021/01/05 11:59:13;;;;;;;46.97;24.40;;;1.60;81.30;;;;;;4957795;28;20462;-80
2021/01/05 12:01:43;;;;;;;40.78;21.42;;;1.60;81.40;;;;;;4957857;28;20065;-80
2021/01/05 12:04:25;;;;;;;40.78;21.33;;;1.60;81.40;;;;;;4957635;28;20027;-80
2021/01/05 12:06:55;;;;;;;36.38;19.92;;;1.60;81.30;;;;;;4955616;28;20492;-79
2021/01/05 12:09:28;;;;;;;44.50;22.35;;;1.60;81.30;;;;;;4941338;28;20074;-80
2021/01/05 12:12:30;;;;;;;44.03;22.00;;;1.70;81.40;;;;;;4957874;28;20065;-80
2021/01/05 12:14:57;;;;;;;45.83;23.73;;;1.70;81.30;;;;;;4975022;28;20527;-80
2021/01/05 12:17:28;;;;;;;44.13;23.35;;;1.70;81.00;;;;;;4957105;28;20041;-79
2021/01/05 12:19:55;;;;;;;44.10;24.05;;;1.60;81.00;;;;;;4957313;28;20055;-80
2021/01/05 12:22:25;;;;;;;46.08;23.73;;;1.60;80.90;;;;;;4957366;28;20101;-79
2021/01/05 12:24:54;;;;;;;42.05;22.35;;;1.60;81.20;;;;;;4974774;28;20039;-82
2021/01/05 12:27:39;;;;;;;38.65;19.95;;;1.60;81.30;;;;;;4973047;28;20086;-81
2021/01/05 12:30:06;;;;;;;44.45;23.35;;;1.60;81.30;;;;;;4951860;28;20148;-79
2021/01/05 12:32:33;;;;;;;49.13;23.95;;;1.70;81.30;;;;;;4940780;28;20030;-80
2021/01/05 12:35:00;;;;;;;47.63;24.92;;;1.70;81.10;;;;;;4957725;28;20507;-80
2021/01/05 12:37:27;;;;;;;45.13;24.67;;;1.70;81.10;;;;;;4958204;28;20019;-80
2021/01/05 12:39:54;;;;;;;50.30;24.00;;;1.70;81.20;;;;;;4974806;28;20031;-80
2021/01/05 12:42:24;;;;;;;48.55;25.10;;;1.50;81.40;;;;;;4957576;28;20117;-79
2021/01/05 12:44:52;;;;;;;52.08;24.63;;;1.60;81.50;;;;;;4941216;28;20484;-79
2021/01/05 12:47:24;;;;;;;39.47;20.75;;;1.60;81.50;;;;;;4941303;28;20081;-80
2021/01/05 12:49:50;;;;;;;41.00;21.13;;;1.50;81.70;;;;;;4957042;28;20050;-80
2021/01/05 12:52:17;;;;;;;39.17;19.85;;;1.60;81.80;;;;;;4941229;28;20454;-79
2021/01/05 12:54:43;;;;;;;47.15;23.38;;;1.70;81.70;;;;;;4925667;28;20023;-81
2021/01/05 12:57:12;;;;;;;46.15;22.35;;;1.70;81.50;;;;;;4940552;28;20031;-79